createdAt,value
2019-03-12T00:00:23.575Z,6.30
2019-03-12T00:02:53.896Z,7.37
2019-03-12T00:05:24.221Z,7.20
2019-03-12T00:07:54.353Z,6.73
2019-03-12T00:10:24.664Z,6.93
2019-03-12T00:12:54.987Z,7.53
2019-03-12T00:15:25.314Z,6.33
2019-03-12T00:17:55.636Z,6.27
2019-03-12T00:20:25.962Z,8.57
2019-03-12T00:22:56.077Z,6.17
2019-03-12T00:25:38.883Z,6.47
2019-03-12T00:28:09.422Z,5.73
2019-03-12T00:30:39.746Z,4.87
2019-03-12T00:33:10.281Z,6.37
2019-03-12T00:35:40.395Z,5.53
2019-03-12T00:38:10.923Z,5.37
2019-03-12T00:40:41.245Z,4.90
2019-03-12T00:43:11.570Z,4.73
2019-03-12T00:45:41.688Z,5.23
2019-03-12T00:48:12.015Z,5.10
2019-03-12T00:50:42.336Z,5.20
2019-03-12T00:53:12.661Z,4.53
2019-03-12T00:55:43.393Z,4.70
2019-03-12T00:58:13.806Z,4.57
2019-03-12T01:00:45.067Z,4.87
2019-03-12T01:03:15.391Z,5.10
2019-03-12T01:05:45.916Z,5.07
2019-03-12T01:08:16.035Z,4.60
2019-03-12T01:10:46.359Z,3.63
2019-03-12T01:13:17.917Z,4.13
2019-03-12T01:15:48.220Z,5.00
2019-03-12T01:18:18.443Z,4.57
2019-03-12T01:20:48.882Z,4.57
2019-03-12T01:23:19.001Z,4.50
2019-03-12T01:25:49.327Z,4.20
2019-03-12T01:28:19.650Z,4.00
2019-03-12T01:30:50.178Z,4.40
2019-03-12T01:33:20.706Z,3.80
2019-03-12T01:35:51.029Z,3.47
2019-03-12T01:38:21.557Z,4.30
2019-03-12T01:40:51.882Z,3.63
2019-03-12T01:43:22.209Z,4.63
2019-03-12T01:45:52.529Z,4.27
2019-03-12T01:48:22.852Z,4.10
2019-03-12T01:50:53.177Z,4.33
2019-03-12T01:53:23.500Z,4.77
2019-03-12T01:55:53.619Z,4.23
2019-03-12T01:58:23.943Z,4.83
2019-03-12T02:00:54.268Z,4.57
2019-03-12T02:03:24.591Z,5.20
2019-03-12T02:05:55.733Z,5.63
2019-03-12T02:08:26.050Z,7.10
2019-03-12T02:10:56.790Z,7.93
2019-03-12T02:13:27.114Z,7.17
2019-03-12T02:15:57.437Z,7.27
2019-03-12T02:18:27.761Z,7.73
2019-03-12T02:20:58.084Z,7.30
2019-03-12T02:23:29.135Z,6.57
2019-03-12T02:25:59.349Z,6.93
2019-03-12T02:28:29.875Z,7.73
2019-03-12T02:31:00.405Z,9.60
2019-03-12T02:33:30.528Z,13.60
2019-03-12T02:36:00.855Z,13.40
2019-03-12T02:38:31.170Z,15.87
2019-03-12T02:41:01.704Z,13.90
2019-03-12T02:43:32.023Z,13.77
2019-03-12T02:46:02.551Z,13.97
2019-03-12T02:48:32.875Z,12.07
2019-03-12T02:51:03.198Z,14.23
2019-03-12T02:53:33.931Z,16.50
2019-03-12T02:56:04.461Z,17.90
2019-03-12T02:58:34.783Z,12.77
2019-03-12T03:01:05.107Z,13.33
2019-03-12T03:03:35.431Z,10.33
2019-03-12T03:06:07.370Z,8.73
2019-03-12T03:08:38.126Z,5.50
2019-03-12T03:11:08.452Z,6.80
2019-03-12T03:13:38.775Z,6.33
2019-03-12T03:16:09.303Z,7.50
2019-03-12T03:18:39.625Z,6.73
2019-03-12T03:21:09.988Z,7.07
2019-03-12T03:23:40.675Z,7.17
2019-03-12T03:26:11.007Z,6.97
2019-03-12T03:28:41.534Z,6.43
2019-03-12T03:31:11.875Z,7.30
2019-03-12T03:33:42.395Z,8.50
2019-03-12T03:36:24.853Z,13.13
2019-03-12T03:38:55.117Z,10.00
2019-03-12T03:41:25.443Z,5.30
2019-03-12T03:43:55.766Z,6.27
2019-03-12T03:46:26.294Z,4.97
2019-03-12T03:48:56.825Z,6.17
2019-03-12T03:51:26.942Z,4.80
2019-03-12T03:53:57.110Z,5.73
2019-03-12T03:56:28.002Z,5.30
2019-03-12T03:58:58.322Z,5.93
2019-03-12T04:01:28.661Z,5.00
2019-03-12T04:03:58.767Z,4.70
2019-03-12T04:06:28.885Z,5.00
2019-03-12T04:08:59.414Z,5.80
2019-03-12T04:11:29.955Z,7.90
2019-03-12T04:14:00.268Z,10.30
2019-03-12T04:16:30.386Z,7.40
2019-03-12T04:19:00.707Z,9.63
2019-03-12T04:21:30.829Z,6.50
2019-03-12T04:24:01.149Z,7.50
2019-03-12T04:26:31.475Z,11.33
2019-03-12T04:29:02.412Z,8.10
2019-03-12T04:31:32.536Z,9.63
2019-03-12T04:34:07.769Z,8.50
2019-03-12T04:36:37.888Z,6.40
2019-03-12T04:39:08.700Z,5.33
2019-03-12T04:41:38.944Z,4.53
2019-03-12T04:44:09.271Z,5.00
2019-03-12T04:46:39.592Z,5.40
2019-03-12T04:49:09.915Z,5.50
2019-03-12T04:51:40.035Z,6.37
2019-03-12T04:54:10.359Z,7.13
2019-03-12T04:56:40.682Z,5.90
2019-03-12T04:59:10.806Z,5.70
2019-03-12T05:01:41.330Z,5.17
2019-03-12T05:04:11.857Z,5.23
2019-03-12T05:06:42.181Z,11.53
2019-03-12T05:09:12.709Z,9.87
2019-03-12T05:11:43.057Z,7.80
2019-03-12T05:14:28.512Z,8.73
2019-03-12T05:17:01.910Z,9.50
2019-03-12T05:19:32.027Z,11.80
2019-03-12T05:22:02.556Z,13.00
2019-03-12T05:24:33.496Z,12.23
2019-03-12T05:27:03.817Z,12.67
2019-03-12T05:29:34.143Z,10.27
2019-03-12T05:32:05.899Z,9.60
2019-03-12T05:34:36.018Z,7.30
2019-03-12T05:37:06.545Z,6.63
2019-03-12T05:39:37.279Z,6.97
2019-03-12T05:42:07.795Z,6.63
2019-03-12T05:44:37.933Z,6.70
2019-03-12T05:47:08.417Z,6.23
2019-03-12T05:49:38.985Z,8.17
2019-03-12T05:52:09.307Z,9.87
2019-03-12T05:54:39.632Z,9.13
2019-03-12T05:57:09.956Z,9.17
2019-03-12T05:59:40.278Z,6.80
2019-03-12T06:02:10.516Z,7.73
2019-03-12T06:04:41.335Z,9.13
2019-03-12T06:07:11.659Z,8.30
2019-03-12T06:09:41.983Z,7.23
2019-03-12T06:12:12.102Z,6.80
2019-03-12T06:14:42.540Z,5.70
2019-03-12T06:17:12.953Z,6.73
2019-03-12T06:19:43.099Z,7.73
2019-03-12T06:22:15.240Z,7.03
2019-03-12T06:24:46.954Z,8.83
2019-03-12T06:27:21.473Z,5.50
2019-03-12T06:29:57.476Z,9.43
2019-03-12T06:32:37.834Z,6.10
2019-03-12T06:35:10.127Z,4.97
2019-03-12T06:37:48.519Z,8.43
2019-03-12T06:40:32.940Z,6.33
2019-03-12T06:43:14.562Z,6.83
2019-03-12T06:45:48.935Z,4.47
2019-03-12T06:48:21.147Z,4.90
2019-03-12T06:50:59.252Z,6.37
2019-03-12T06:53:31.009Z,5.00
2019-03-12T06:56:19.152Z,4.60
2019-03-12T06:59:05.010Z,5.40
2019-03-12T07:01:55.639Z,5.70
2019-03-12T07:04:27.489Z,5.37
2019-03-12T07:07:01.032Z,5.23
2019-03-12T07:09:38.924Z,6.30
2019-03-12T07:12:17.006Z,5.53
2019-03-12T07:14:51.628Z,4.77
2019-03-12T07:17:23.594Z,5.10
2019-03-12T07:19:58.218Z,4.03
2019-03-12T07:22:35.911Z,4.30
2019-03-12T07:25:10.740Z,4.27
2019-03-12T07:27:45.775Z,4.67
2019-03-12T07:30:34.127Z,5.20
2019-03-12T07:33:09.104Z,4.00
2019-03-12T07:35:44.021Z,3.50
2019-03-12T07:38:16.243Z,2.93
2019-03-12T07:40:54.261Z,3.53
2019-03-12T07:43:42.194Z,3.67
2019-03-12T07:46:24.398Z,3.30
2019-03-12T07:49:02.303Z,4.27
2019-03-12T07:51:40.200Z,4.00
2019-03-12T07:54:17.696Z,3.47
2019-03-12T07:56:58.478Z,4.63
2019-03-12T07:59:42.307Z,3.40
2019-03-12T08:02:16.924Z,2.77
2019-03-12T08:05:04.118Z,2.77
2019-03-12T08:07:53.004Z,2.67
2019-03-12T08:10:40.939Z,2.30
2019-03-12T08:13:31.336Z,3.20
2019-03-12T08:16:06.127Z,3.30
2019-03-12T08:18:41.401Z,2.70
2019-03-12T08:24:26.496Z,3.43
2019-03-12T08:27:01.493Z,2.93
2019-03-12T08:29:36.563Z,3.00
2019-03-12T08:32:24.293Z,3.20
2019-03-12T08:34:56.253Z,3.30
2019-03-12T08:37:28.624Z,2.93
2019-03-12T08:40:09.882Z,3.15
2019-03-12T08:42:55.011Z,2.90
2019-03-12T08:45:48.489Z,3.30
2019-03-12T08:48:19.071Z,3.25
2019-03-12T08:50:56.767Z,3.65
2019-03-12T08:53:40.987Z,2.85
2019-03-12T08:56:12.980Z,3.33
2019-03-12T08:58:44.945Z,3.98
2019-03-12T09:01:19.976Z,3.08
2019-03-12T09:04:00.539Z,2.90
2019-03-12T09:06:35.369Z,3.43
2019-03-12T09:09:11.798Z,3.75
2019-03-12T09:11:43.799Z,3.13
2019-03-12T09:14:18.423Z,3.33
2019-03-12T09:16:50.590Z,2.80
2019-03-12T09:19:38.528Z,3.47
2019-03-12T09:22:28.511Z,2.90
2019-03-12T09:25:06.208Z,2.80
2019-03-12T09:27:41.242Z,2.43
2019-03-12T09:30:14.228Z,2.42
2019-03-12T09:32:52.336Z,2.52
2019-03-12T09:35:24.302Z,2.30
2019-03-12T09:38:01.993Z,2.27
2019-03-12T09:40:33.751Z,3.92
2019-03-12T09:43:08.377Z,2.80
2019-03-12T09:45:56.523Z,2.37
2019-03-12T09:48:43.314Z,2.40
2019-03-12T09:51:16.824Z,4.97
2019-03-12T09:54:03.532Z,3.97
2019-03-12T09:56:52.492Z,2.95
2019-03-12T09:59:27.322Z,2.85
2019-03-12T10:02:15.281Z,3.58
2019-03-12T10:04:58.895Z,3.08
2019-03-12T10:07:33.742Z,2.80
2019-03-12T10:10:24.886Z,2.10
2019-03-12T10:12:59.971Z,2.00
2019-03-12T10:15:31.729Z,2.35
2019-03-12T10:18:09.426Z,2.55
2019-03-12T10:20:56.337Z,2.08
2019-03-12T10:23:28.096Z,2.50
2019-03-12T10:26:03.143Z,2.58
2019-03-12T10:28:35.093Z,2.00
2019-03-12T10:31:07.146Z,2.37
2019-03-12T10:33:55.808Z,2.00
2019-03-12T10:36:30.784Z,2.30
2019-03-12T10:39:52.367Z,2.90
2019-03-12T10:42:26.992Z,4.33
2019-03-12T10:45:01.709Z,3.43
2019-03-12T10:47:33.579Z,2.20
2019-03-12T10:50:05.131Z,3.90
2019-03-12T10:52:35.458Z,3.97
2019-03-12T10:55:13.080Z,2.10
2019-03-12T10:57:40.199Z,2.47
2019-03-12T11:00:17.149Z,1.80
2019-03-12T11:02:50.270Z,3.10
2019-03-12T11:05:20.784Z,4.30
2019-03-12T11:07:50.915Z,3.80
2019-03-12T11:10:21.241Z,2.90
2019-03-12T11:12:51.550Z,1.93
2019-03-12T11:15:21.885Z,2.40
2019-03-12T11:17:52.413Z,2.60
2019-03-12T11:20:24.991Z,1.90
2019-03-12T11:22:55.313Z,2.20
2019-03-12T11:25:27.882Z,2.00
2019-03-12T11:27:57.394Z,2.63
2019-03-12T11:30:28.130Z,2.37
2019-03-12T11:32:58.451Z,2.93
2019-03-12T11:35:38.185Z,2.50
2019-03-12T11:38:00.972Z,2.73
2019-03-12T11:40:32.540Z,2.90
2019-03-12T11:43:03.062Z,2.70
2019-03-12T11:45:36.727Z,2.10
2019-03-12T11:48:06.319Z,2.57
2019-03-12T11:50:36.454Z,2.27
2019-03-12T11:53:07.395Z,1.87
2019-03-12T11:55:37.920Z,2.60
2019-03-12T11:58:08.252Z,3.00
2019-03-12T12:00:51.880Z,2.00
2019-03-12T12:03:22.816Z,2.40
2019-03-12T12:05:53.144Z,1.77
2019-03-12T12:08:23.447Z,2.00
2019-03-12T12:10:53.782Z,2.00
2019-03-12T12:13:24.122Z,2.10
2019-03-12T12:15:54.434Z,2.30
2019-03-12T12:18:24.772Z,2.40
2019-03-12T12:20:55.088Z,2.70
2019-03-12T12:23:25.612Z,4.10
2019-03-12T12:25:55.824Z,1.97
2019-03-12T12:28:26.667Z,2.77
2019-03-12T12:30:57.402Z,2.70
2019-03-12T12:33:27.524Z,4.10
2019-03-12T12:35:58.079Z,2.93
2019-03-12T12:38:28.373Z,2.50
2019-03-12T12:40:58.784Z,2.40
2019-03-12T12:43:29.226Z,2.80
2019-03-12T12:45:59.788Z,2.87
2019-03-12T12:48:30.077Z,3.73
2019-03-12T12:51:03.525Z,2.37
2019-03-12T12:53:37.482Z,2.73
2019-03-12T12:56:07.805Z,2.57
2019-03-12T12:58:38.130Z,2.90
2019-03-12T13:01:08.453Z,3.23
2019-03-12T13:03:38.981Z,2.80
2019-03-12T13:06:09.510Z,2.60
2019-03-12T13:08:39.835Z,3.00
2019-03-12T13:11:10.163Z,2.97
2019-03-12T13:13:40.481Z,2.10
2019-03-12T13:16:10.600Z,2.73
2019-03-12T13:18:40.924Z,3.57
2019-03-12T13:21:11.254Z,4.00
2019-03-12T13:23:41.563Z,4.20
2019-03-12T13:26:11.690Z,6.17
2019-03-12T13:28:44.870Z,3.60
2019-03-12T13:31:13.771Z,3.27
2019-03-12T13:33:44.299Z,3.63
2019-03-12T13:36:15.946Z,4.07
2019-03-12T13:38:47.961Z,4.50
2019-03-12T13:41:17.934Z,3.90
2019-03-12T13:43:48.309Z,5.77
2019-03-12T13:46:18.602Z,4.50
2019-03-12T13:48:49.121Z,4.90
2019-03-12T13:51:19.419Z,4.43
2019-03-12T13:53:51.754Z,5.50
2019-03-12T13:56:22.142Z,6.40
2019-03-12T13:58:52.459Z,6.43
2019-03-12T14:01:23.185Z,5.50
2019-03-12T14:03:53.918Z,7.30
2019-03-12T14:06:24.449Z,6.60
2019-03-12T14:08:54.988Z,6.97
2019-03-12T14:11:27.767Z,8.13
2019-03-12T14:13:58.490Z,5.93
2019-03-12T14:16:28.816Z,5.63
2019-03-12T14:18:59.351Z,6.83
2019-03-12T14:21:32.540Z,7.47
2019-03-12T14:24:03.470Z,7.70
2019-03-12T14:26:34.000Z,6.73
2019-03-12T14:29:04.533Z,7.73
2019-03-12T14:31:34.458Z,7.60
2019-03-12T14:34:04.341Z,7.87
2019-03-12T14:36:34.325Z,9.03
2019-03-12T14:39:05.546Z,9.97
2019-03-12T14:41:35.611Z,10.27
2019-03-12T14:44:05.694Z,10.40
2019-03-12T14:46:35.779Z,10.13
2019-03-12T14:49:05.765Z,10.40
2019-03-12T14:51:47.936Z,11.00
2019-03-12T14:54:17.891Z,8.73
2019-03-12T14:56:47.767Z,9.40
2019-03-12T14:59:17.587Z,11.00
2019-03-12T15:01:47.546Z,13.73
2019-03-12T15:04:17.606Z,11.63
2019-03-12T15:06:47.855Z,11.43
2019-03-12T15:09:18.321Z,10.23
2019-03-12T15:11:49.464Z,10.57
2019-03-12T15:14:20.392Z,11.03
2019-03-12T15:16:50.715Z,11.33
2019-03-12T15:19:21.299Z,15.27
2019-03-12T15:21:52.185Z,11.83
2019-03-12T15:24:22.721Z,13.50
2019-03-12T15:26:52.836Z,13.10
2019-03-12T15:29:26.326Z,12.77
2019-03-12T15:32:03.956Z,13.57
2019-03-12T15:34:28.715Z,12.90
2019-03-12T15:37:00.240Z,13.33
2019-03-12T15:39:30.560Z,14.27
2019-03-12T15:42:02.359Z,15.40
2019-03-12T15:44:33.287Z,16.47
2019-03-12T15:47:04.019Z,17.20
2019-03-12T15:49:37.795Z,16.37
2019-03-12T15:52:08.150Z,18.23
2019-03-12T15:54:38.677Z,19.67
2019-03-12T15:57:09.200Z,22.00
2019-03-12T15:59:39.532Z,20.17
2019-03-12T16:02:09.649Z,19.77
2019-03-12T16:04:39.973Z,19.40
2019-03-12T16:07:10.299Z,16.60
2019-03-12T16:09:40.828Z,11.33
2019-03-12T16:12:11.148Z,15.90
2019-03-12T16:14:41.583Z,13.73
2019-03-12T16:17:13.408Z,13.03
2019-03-12T16:19:45.836Z,13.40
2019-03-12T16:22:16.147Z,12.10
2019-03-12T16:24:46.665Z,15.67
2019-03-12T16:27:17.191Z,15.57
2019-03-12T16:29:48.536Z,15.30
2019-03-12T16:32:18.654Z,16.57
2019-03-12T16:34:48.771Z,15.63
2019-03-12T16:37:21.963Z,15.30
2019-03-12T16:39:54.130Z,16.00
2019-03-12T16:42:34.447Z,16.80
2019-03-12T16:44:56.233Z,16.20
2019-03-12T16:47:26.535Z,16.60
2019-03-12T16:49:57.472Z,21.00
2019-03-12T16:52:27.593Z,15.17
2019-03-12T16:54:57.916Z,18.23
2019-03-12T16:57:28.243Z,14.93
2019-03-12T16:59:58.563Z,19.87
2019-03-12T17:02:29.094Z,19.80
2019-03-12T17:04:59.622Z,20.57
2019-03-12T17:07:29.832Z,28.57
2019-03-12T17:10:00.066Z,61.20
2019-03-12T17:12:30.799Z,35.13
2019-03-12T17:15:01.324Z,25.63
2019-03-12T17:17:31.698Z,27.30
2019-03-12T17:20:01.975Z,39.37
2019-03-12T17:22:35.532Z,27.87
2019-03-12T17:25:04.465Z,31.80
2019-03-12T17:27:34.991Z,35.53
2019-03-12T17:30:13.920Z,21.93
2019-03-12T17:32:44.242Z,39.97
2019-03-12T17:35:32.176Z,43.10
2019-03-12T17:38:02.705Z,36.60
2019-03-12T17:40:38.968Z,42.97
2019-03-12T17:43:09.087Z,25.40
2019-03-12T17:45:39.412Z,71.20
2019-03-12T17:48:09.738Z,34.67
2019-03-12T17:50:40.058Z,24.30
2019-03-12T17:53:10.382Z,29.07
2019-03-12T17:55:40.714Z,27.47
2019-03-12T17:58:11.022Z,30.80
2019-03-12T18:00:45.254Z,31.03
2019-03-12T18:03:15.571Z,51.37
2019-03-12T18:05:46.505Z,46.30
2019-03-12T18:08:16.830Z,39.67
2019-03-12T18:10:47.156Z,39.07
2019-03-12T18:13:17.486Z,37.20
2019-03-12T18:15:48.215Z,32.40
2019-03-12T18:18:19.154Z,30.03
2019-03-12T18:20:49.489Z,40.37
2019-03-12T18:23:20.004Z,44.27
2019-03-12T18:25:51.451Z,36.63
2019-03-12T18:28:21.887Z,38.77
2019-03-12T18:30:52.200Z,41.37
2019-03-12T18:33:22.728Z,38.43
2019-03-12T18:35:53.057Z,49.90
2019-03-12T18:38:28.497Z,28.00
2019-03-12T18:40:59.640Z,27.80
2019-03-12T18:43:30.115Z,32.17
2019-03-12T18:46:00.492Z,37.13
2019-03-12T18:48:30.815Z,38.07
2019-03-12T18:51:01.404Z,39.57
2019-03-12T18:53:33.306Z,41.63
2019-03-12T18:56:04.799Z,41.43
2019-03-12T18:58:35.185Z,43.07
2019-03-12T19:01:06.530Z,46.53
2019-03-12T19:03:37.501Z,50.37
2019-03-12T19:06:10.029Z,51.97
2019-03-12T19:08:40.015Z,51.33
2019-03-12T19:11:10.898Z,46.73
2019-03-12T19:13:41.870Z,51.37
2019-03-12T19:16:12.160Z,43.53
2019-03-12T19:18:42.411Z,50.40
2019-03-12T19:21:13.495Z,38.00
2019-03-12T19:23:44.154Z,37.93
2019-03-12T19:26:14.495Z,47.70
2019-03-12T19:28:44.819Z,45.30
2019-03-12T19:31:17.174Z,33.97
2019-03-12T19:33:47.311Z,35.87
2019-03-12T19:36:17.232Z,38.37
2019-03-12T19:38:47.057Z,35.07
2019-03-12T19:41:16.950Z,29.87
2019-03-12T19:43:46.946Z,29.07
2019-03-12T19:46:16.982Z,28.63
2019-03-12T19:48:47.069Z,30.10
2019-03-12T19:51:17.719Z,30.90
2019-03-12T19:53:48.063Z,33.50
2019-03-12T19:56:18.554Z,42.83
2019-03-12T19:58:49.164Z,44.57
2019-03-12T20:01:20.975Z,34.63
2019-03-12T20:03:51.016Z,32.17
2019-03-12T20:06:20.954Z,32.30
2019-03-12T20:08:50.844Z,31.23
2019-03-12T20:11:35.747Z,34.50
2019-03-12T20:14:18.282Z,34.33
2019-03-12T20:17:09.441Z,33.20
2019-03-12T20:20:18.112Z,46.20
2019-03-12T20:23:25.103Z,40.07
2019-03-12T20:26:30.030Z,46.10
2019-03-12T20:29:09.365Z,42.07
2019-03-12T20:32:12.458Z,38.87
2019-03-12T20:35:05.164Z,36.00
2019-03-12T20:37:47.920Z,38.53
2019-03-12T20:40:48.146Z,32.63
2019-03-12T20:43:39.975Z,29.17
2019-03-12T20:46:33.913Z,31.40
2019-03-12T20:49:27.314Z,33.07
2019-03-12T20:52:29.587Z,26.33
2019-03-12T20:55:14.659Z,30.70
2019-03-12T20:58:07.510Z,30.40
2019-03-12T21:00:46.426Z,31.77
2019-03-12T21:03:45.225Z,27.77
2019-03-12T21:06:56.714Z,23.90
2019-03-12T21:09:54.071Z,25.23
2019-03-12T21:12:45.905Z,28.10
2019-03-12T21:15:36.176Z,25.80
2019-03-12T21:18:26.277Z,27.07
2019-03-12T21:21:02.341Z,26.97
2019-03-12T21:24:01.208Z,25.17
2019-03-12T21:26:40.680Z,25.87
2019-03-12T21:29:16.936Z,24.40
2019-03-12T21:31:47.253Z,24.60
2019-03-12T21:34:17.464Z,27.87
2019-03-12T21:36:49.336Z,26.57
2019-03-12T21:39:19.866Z,28.10
2019-03-12T21:41:50.596Z,24.90
2019-03-12T21:44:21.150Z,28.33
2019-03-12T21:46:52.267Z,28.20
2019-03-12T21:49:22.591Z,24.33
2019-03-12T21:51:52.918Z,28.03
2019-03-12T21:54:23.243Z,28.53
2019-03-12T21:56:53.561Z,25.63
2019-03-12T21:59:23.885Z,26.80
2019-03-12T22:01:54.411Z,26.10
2019-03-12T22:04:24.738Z,26.53
2019-03-12T22:06:55.062Z,27.37
2019-03-12T22:12:21.311Z,26.37
2019-03-12T22:14:51.633Z,27.70
2019-03-12T22:17:22.256Z,29.30
2019-03-12T22:19:52.485Z,31.43
2019-03-12T22:22:30.181Z,32.20
2019-03-12T22:25:00.505Z,29.17
2019-03-12T22:27:31.239Z,32.30
2019-03-12T22:30:01.768Z,30.13
2019-03-12T22:32:32.093Z,33.07
2019-03-12T22:35:02.415Z,35.73
2019-03-12T22:37:32.945Z,33.47
2019-03-12T22:40:03.271Z,32.90
2019-03-12T22:42:33.590Z,33.23
2019-03-12T22:45:04.752Z,38.07
2019-03-12T22:47:35.467Z,35.30
2019-03-12T22:50:11.524Z,31.40
2019-03-12T22:52:41.851Z,32.07
2019-03-12T22:55:13.521Z,30.83
2019-03-12T22:57:43.937Z,29.73
2019-03-12T23:00:20.616Z,29.43
2019-03-12T23:02:51.540Z,28.53
2019-03-12T23:05:22.090Z,29.13
2019-03-12T23:07:53.025Z,28.27
2019-03-12T23:10:23.956Z,29.33
2019-03-12T23:12:54.890Z,29.07
2019-03-12T23:15:26.060Z,26.70
2019-03-12T23:17:56.572Z,25.63
2019-03-12T23:20:29.047Z,25.53
2019-03-12T23:22:59.073Z,25.30
2019-03-12T23:25:29.582Z,26.93
2019-03-12T23:28:00.119Z,26.20
2019-03-12T23:30:30.547Z,26.57
2019-03-12T23:33:01.982Z,27.93
2019-03-12T23:35:32.521Z,26.90
2019-03-12T23:38:04.707Z,26.77
2019-03-12T23:40:35.210Z,26.83
2019-03-12T23:43:05.734Z,25.27
2019-03-12T23:45:36.263Z,26.43
2019-03-12T23:48:06.587Z,26.00
2019-03-12T23:53:31.609Z,24.60
2019-03-12T23:56:02.341Z,25.37
2019-03-12T23:58:32.729Z,25.73
